createdAt,value
2018-12-19T00:02:11.996Z,75.46
2018-12-19T00:04:40.293Z,74.93
2018-12-19T00:07:08.481Z,74.81
2018-12-19T00:09:36.614Z,74.83
2018-12-19T00:12:04.901Z,74.09
2018-12-19T00:14:33.141Z,74.41
2018-12-19T00:17:01.584Z,74.24
2018-12-19T00:19:30.581Z,74.32
2018-12-19T00:21:58.761Z,73.96
2018-12-19T00:24:26.921Z,73.97
2018-12-19T00:26:55.161Z,73.74
2018-12-19T00:29:24.361Z,73.78
2018-12-19T00:31:52.468Z,73.75
2018-12-19T00:34:21.502Z,74.04
2018-12-19T00:36:49.601Z,73.37
2018-12-19T00:39:17.781Z,72.97
2018-12-19T00:41:46.024Z,73.17
2018-12-19T00:44:14.221Z,73.17
2018-12-19T00:46:42.321Z,73.48
2018-12-19T00:49:10.461Z,73.52
2018-12-19T00:51:38.622Z,73.70
2018-12-19T00:54:06.662Z,72.73
2018-12-19T00:56:34.982Z,72.81
2018-12-19T00:59:03.101Z,72.34
2018-12-19T01:01:31.183Z,72.85
2018-12-19T01:03:59.401Z,71.52
2018-12-19T01:06:28.741Z,72.80
2018-12-19T01:08:56.922Z,72.62
2018-12-19T01:11:24.982Z,72.37
2018-12-19T01:13:53.101Z,72.53
2018-12-19T01:16:21.281Z,71.89
2018-12-19T01:18:49.981Z,72.43
2018-12-19T01:21:19.002Z,72.52
2018-12-19T01:23:47.042Z,72.37
2018-12-19T01:26:15.162Z,72.60
2018-12-19T01:28:43.234Z,72.35
2018-12-19T01:31:11.382Z,72.81
2018-12-19T01:33:39.502Z,72.58
2018-12-19T01:36:08.002Z,72.30
2018-12-19T01:38:36.002Z,72.93
2018-12-19T01:41:04.161Z,72.29
2018-12-19T01:43:32.241Z,72.68
2018-12-19T01:46:00.482Z,72.50
2018-12-19T01:48:28.562Z,72.24
2018-12-19T01:50:56.703Z,71.33
2018-12-19T01:53:24.861Z,71.99
2018-12-19T01:55:53.644Z,71.90
2018-12-19T01:58:21.942Z,72.31
2018-12-19T02:00:50.101Z,72.06
2018-12-19T02:03:18.173Z,71.54
2018-12-19T02:05:46.481Z,71.64
2018-12-19T02:08:14.628Z,72.08
2018-12-19T02:10:42.842Z,71.72
2018-12-19T02:13:11.001Z,71.68
2018-12-19T02:15:39.141Z,72.32
2018-12-19T02:18:07.142Z,72.08
2018-12-19T02:20:37.343Z,71.78
2018-12-19T02:23:05.469Z,71.41
2018-12-19T02:25:33.943Z,71.61
2018-12-19T02:28:02.013Z,71.58
2018-12-19T02:30:30.101Z,72.00
2018-12-19T02:32:58.473Z,72.47
2018-12-19T02:35:27.473Z,72.81
2018-12-19T02:37:55.765Z,72.47
2018-12-19T02:40:24.057Z,72.81
2018-12-19T02:42:52.282Z,72.36
2018-12-19T02:45:20.412Z,72.49
2018-12-19T02:47:48.617Z,72.21
2018-12-19T02:50:16.763Z,71.85
2018-12-19T02:52:44.973Z,71.90
2018-12-19T02:55:13.100Z,72.35
2018-12-19T02:57:41.233Z,72.61
2018-12-19T03:00:09.501Z,72.15
2018-12-19T03:02:37.782Z,72.64
2018-12-19T03:05:05.892Z,72.56
2018-12-19T03:07:34.049Z,72.96
2018-12-19T03:10:02.180Z,72.41
2018-12-19T03:12:30.321Z,72.38
2018-12-19T03:14:58.493Z,72.52
2018-12-19T03:17:26.663Z,72.63
2018-12-19T03:19:55.301Z,72.20
2018-12-19T03:22:23.482Z,72.37
2018-12-19T03:24:51.600Z,72.58
2018-12-19T03:27:19.832Z,72.84
2018-12-19T03:29:47.852Z,72.55
2018-12-19T03:32:16.490Z,73.11
2018-12-19T03:34:44.732Z,72.19
2018-12-19T03:37:12.920Z,72.33
2018-12-19T03:39:40.932Z,73.09
2018-12-19T03:42:09.209Z,72.31
2018-12-19T03:44:37.317Z,72.42
2018-12-19T03:47:05.482Z,72.73
2018-12-19T03:49:33.813Z,72.34
2018-12-19T03:52:02.212Z,73.06
2018-12-19T03:54:30.566Z,71.58
2018-12-19T03:56:59.393Z,71.79
2018-12-19T03:59:27.560Z,72.05
2018-12-19T04:01:55.740Z,71.72
2018-12-19T04:04:23.924Z,72.54
2018-12-19T04:06:52.181Z,72.85
2018-12-19T04:09:20.341Z,72.48
2018-12-19T04:11:48.401Z,72.72
2018-12-19T04:14:16.581Z,72.59
2018-12-19T04:16:44.701Z,71.99
2018-12-19T04:19:12.927Z,72.13
2018-12-19T04:21:41.182Z,72.38
2018-12-19T04:24:09.382Z,71.48
2018-12-19T04:26:37.662Z,70.99
2018-12-19T04:29:05.762Z,70.64
2018-12-19T04:31:33.902Z,70.86
2018-12-19T04:34:02.081Z,71.30
2018-12-19T04:36:30.143Z,70.38
2018-12-19T04:38:58.343Z,70.57
2018-12-19T04:41:26.523Z,70.67
2018-12-19T04:43:54.644Z,69.79
2018-12-19T04:46:22.723Z,70.45
2018-12-19T04:48:50.922Z,70.26
2018-12-19T04:51:19.062Z,70.27
2018-12-19T04:53:47.162Z,70.72
2018-12-19T04:56:15.202Z,70.11
2018-12-19T04:58:43.414Z,69.65
2018-12-19T05:01:11.534Z,69.37
2018-12-19T05:03:39.822Z,69.40
2018-12-19T05:06:08.084Z,69.73
2018-12-19T05:08:36.234Z,68.91
2018-12-19T05:11:04.342Z,69.49
2018-12-19T05:13:32.494Z,68.74
2018-12-19T05:16:00.594Z,68.93
2018-12-19T05:18:28.762Z,68.87
2018-12-19T05:20:56.842Z,69.02
2018-12-19T05:23:25.042Z,68.52
2018-12-19T05:25:53.242Z,69.46
2018-12-19T05:28:21.322Z,69.79
2018-12-19T05:30:49.515Z,70.44
2018-12-19T05:33:17.722Z,69.80
2018-12-19T05:35:45.874Z,69.01
2018-12-19T05:38:14.002Z,68.72
2018-12-19T05:40:42.162Z,68.94
2018-12-19T05:43:10.294Z,68.73
2018-12-19T05:45:38.442Z,69.09
2018-12-19T05:48:06.502Z,69.08
2018-12-19T05:50:34.795Z,71.78
2018-12-19T05:53:03.034Z,71.39
2018-12-19T05:55:31.195Z,72.62
2018-12-19T05:57:59.362Z,73.24
2018-12-19T06:00:27.636Z,74.48
2018-12-19T06:02:55.750Z,74.59
2018-12-19T06:05:23.927Z,74.58
2018-12-19T06:07:52.114Z,74.64
2018-12-19T06:10:26.169Z,75.16
2018-12-19T06:12:50.562Z,76.55
2018-12-19T06:15:18.776Z,75.57
2018-12-19T06:17:46.894Z,77.24
2018-12-19T06:20:15.214Z,77.96
2018-12-19T06:22:43.774Z,78.91
2018-12-19T06:25:11.978Z,79.04
2018-12-19T06:27:40.024Z,80.58
2018-12-19T06:30:08.382Z,81.04
2018-12-19T06:32:36.742Z,82.19
2018-12-19T06:35:05.015Z,83.24
2018-12-19T06:37:33.462Z,83.41
2018-12-19T06:40:01.596Z,84.34
2018-12-19T06:42:29.794Z,84.72
2018-12-19T06:44:58.042Z,84.32
2018-12-19T06:47:26.242Z,84.16
2018-12-19T06:49:55.281Z,83.77
2018-12-19T06:52:23.534Z,83.53
2018-12-19T06:54:51.734Z,83.53
2018-12-19T06:57:20.402Z,83.73
2018-12-19T06:59:48.662Z,82.94
2018-12-19T07:02:16.902Z,82.79
2018-12-19T07:04:45.021Z,82.68
2018-12-19T07:07:13.322Z,82.32
2018-12-19T07:09:41.382Z,82.68
2018-12-19T07:12:09.662Z,82.33
2018-12-19T07:14:40.642Z,83.35
2018-12-19T07:17:08.962Z,82.33
2018-12-19T07:19:37.162Z,82.43
2018-12-19T07:22:05.302Z,83.13
2018-12-19T07:24:33.522Z,83.15
2018-12-19T07:27:01.982Z,83.36
2018-12-19T07:29:30.121Z,83.46
2018-12-19T07:31:58.402Z,83.14
2018-12-19T07:34:26.507Z,82.46
2018-12-19T07:36:54.876Z,82.94
2018-12-19T07:39:23.175Z,82.10
2018-12-19T07:41:51.447Z,82.93
2018-12-19T07:44:19.696Z,82.87
2018-12-19T07:46:47.996Z,82.67
2018-12-19T07:49:16.216Z,82.20
2018-12-19T07:51:44.756Z,81.83
2018-12-19T07:54:12.936Z,82.03
2018-12-19T07:56:41.176Z,81.73
2018-12-19T07:59:09.323Z,81.83
2018-12-19T08:01:37.576Z,81.37
2018-12-19T08:04:05.855Z,81.39
2018-12-19T08:06:33.996Z,81.61
2018-12-19T08:09:03.496Z,81.10
2018-12-19T08:11:31.656Z,81.41
2018-12-19T08:13:59.855Z,81.90
2018-12-19T08:16:28.975Z,81.50
2018-12-19T08:18:57.256Z,81.88
2018-12-19T08:21:25.556Z,81.55
2018-12-19T08:23:54.315Z,82.13
2018-12-19T08:26:22.395Z,81.28
2018-12-19T08:28:50.639Z,81.56
2018-12-19T08:31:19.236Z,81.51
2018-12-19T08:33:47.435Z,81.42
2018-12-19T08:36:15.676Z,81.55
2018-12-19T08:38:45.336Z,81.44
2018-12-19T08:41:19.456Z,81.66
2018-12-19T08:43:48.095Z,81.68
2018-12-19T08:46:16.677Z,81.56
2018-12-19T08:57:29.675Z,81.00
2018-12-19T09:24:16.135Z,80.94
2018-12-19T09:26:52.275Z,80.62
2018-12-19T13:02:24.297Z,80.90
2018-12-19T13:36:28.137Z,79.98
2018-12-19T14:40:55.757Z,77.22
2018-12-19T15:00:25.936Z,79.64
2018-12-19T15:16:24.214Z,80.43
2018-12-19T15:46:56.874Z,82.47
2018-12-19T15:49:26.175Z,81.91
2018-12-19T15:54:53.605Z,81.18
2018-12-19T15:57:24.294Z,81.29
2018-12-19T15:59:55.953Z,81.31
2018-12-19T16:02:29.854Z,81.62
2018-12-19T16:04:58.533Z,81.40
2018-12-19T16:07:27.653Z,81.94
2018-12-19T16:23:34.253Z,83.91
2018-12-19T16:53:58.992Z,81.83
2018-12-19T16:59:25.686Z,82.30
2018-12-19T17:01:54.926Z,82.31
2018-12-19T17:04:24.926Z,82.29
2018-12-19T17:07:25.114Z,82.61
2018-12-19T17:10:10.907Z,82.80
2018-12-19T20:46:45.236Z,80.68
2018-12-19T21:13:06.616Z,82.96
2018-12-19T21:15:36.517Z,82.76
2018-12-19T21:20:56.376Z,81.01
2018-12-19T21:23:25.536Z,80.87
2018-12-19T21:25:55.176Z,80.26
2018-12-19T21:28:23.716Z,80.79
2018-12-19T21:30:52.340Z,80.52
2018-12-19T21:33:24.657Z,80.49
2018-12-19T21:36:06.107Z,80.45
2018-12-19T21:38:34.519Z,80.51
2018-12-19T21:41:03.097Z,80.41
2018-12-19T21:43:31.396Z,80.76
2018-12-19T21:45:59.891Z,80.40
2018-12-19T21:48:29.085Z,80.57
2018-12-19T21:50:57.936Z,80.32
2018-12-19T21:53:26.530Z,80.66
2018-12-19T21:55:56.549Z,80.97
2018-12-19T21:58:25.256Z,81.14
2018-12-19T22:00:54.437Z,81.09
2018-12-19T22:03:22.916Z,81.53
2018-12-19T22:05:51.716Z,81.35
2018-12-19T22:08:20.837Z,82.47
2018-12-19T22:10:49.689Z,83.29
2018-12-19T22:13:18.137Z,83.35
2018-12-19T22:15:46.677Z,83.61
2018-12-19T22:18:20.776Z,83.32
2018-12-19T22:20:56.035Z,83.63
2018-12-19T22:23:24.437Z,83.58
2018-12-19T22:25:52.532Z,83.27
2018-12-19T22:28:20.718Z,83.43
2018-12-19T22:30:48.802Z,83.29
2018-12-19T22:33:17.078Z,83.78
2018-12-19T22:35:45.397Z,84.15
2018-12-19T22:38:13.596Z,83.20
2018-12-19T22:40:41.916Z,83.47
2018-12-19T22:43:10.056Z,84.08
2018-12-19T22:45:38.275Z,83.34
2018-12-19T22:48:06.595Z,83.50
2018-12-19T22:50:34.816Z,84.22
2018-12-19T22:53:03.124Z,83.35
2018-12-19T22:55:31.517Z,82.91
2018-12-19T22:57:59.716Z,86.10
2018-12-19T23:00:30.076Z,84.96
2018-12-19T23:03:03.716Z,84.78
2018-12-19T23:05:37.474Z,86.63
2018-12-19T23:08:05.948Z,87.46
2018-12-19T23:10:34.338Z,87.49
2018-12-19T23:13:02.596Z,87.32
2018-12-19T23:15:30.755Z,86.09
2018-12-19T23:18:04.464Z,86.42
2018-12-19T23:20:32.596Z,85.17
2018-12-19T23:23:00.677Z,84.61
2018-12-19T23:25:28.911Z,83.78
2018-12-19T23:27:57.231Z,83.31
2018-12-19T23:30:25.495Z,82.85
2018-12-19T23:32:53.815Z,82.21
2018-12-19T23:35:21.998Z,81.75
2018-12-19T23:37:50.256Z,81.36
2018-12-19T23:40:18.496Z,81.63
2018-12-19T23:42:46.756Z,81.42
2018-12-19T23:45:15.084Z,81.37
2018-12-19T23:47:43.250Z,81.44
2018-12-19T23:50:11.716Z,81.23
2018-12-19T23:52:39.955Z,81.36
2018-12-19T23:55:08.195Z,81.23
2018-12-19T23:57:36.441Z,81.34
